Time;durP1;ratioP1;P1;durP2;ratioP2;P2;SDS_P1;SDS_P2;PMS_P1;PMS_P2;Temp;Humidity;BMP_temperature;BMP_pressure;BME280_temperature;BME280_humidity;BME280_pressure;Samples;Min_cycle;Max_cycle;Signal;HPM_P1;HPM_P2
2023/07/30 00:03:44;;;;;;;;;;;;;;;16.16;100.00;100826.09;10459892;28;19931;-67
2023/07/30 00:08:47;;;;;;;;;;;;;;;16.09;100.00;100822.28;10442511;28;19929;-67
2023/07/30 00:13:49;;;;;;;;;;;;;;;15.84;100.00;100824.22;10459588;28;19924;-67
2023/07/30 00:18:51;;;;;;;;;;;;;;;15.86;100.00;100816.19;10459312;28;20265;-67
2023/07/30 00:23:53;;;;;;;;;;;;;;;15.75;100.00;100817.88;10459300;28;19924;-67
2023/07/30 00:28:56;;;;;;;;;;;;;;;15.83;100.00;100816.41;10441328;28;20296;-67
2023/07/30 00:33:58;;;;;;;;;;;;;;;15.71;100.00;100815.56;10458964;28;19924;-67
2023/07/30 00:39:00;;;;;;;;;;;;;;;15.92;100.00;100819.19;10458550;28;19928;-67
2023/07/30 00:44:03;;;;;;;;;;;;;;;16.01;100.00;100820.25;10458452;28;20376;-67
2023/07/30 00:49:05;;;;;;;;;;;;;;;15.82;100.00;100815.59;10458242;28;20453;-67
2023/07/30 00:54:07;;;;;;;;;;;;;;;15.78;100.00;100828.19;10424129;28;20380;-67
2023/07/30 00:59:09;;;;;;;;;;;;;;;15.73;100.00;100827.66;10415621;28;19929;-67
2023/07/30 01:04:12;;;;;;;;;;;;;;;15.66;100.00;100836.19;10415436;28;19925;-67
2023/07/30 01:09:14;;;;;;;;;;;;;;;15.48;100.00;100835.81;10415259;28;19952;-67
2023/07/30 01:14:16;;;;;;;;;;;;;;;15.49;100.00;100840.16;10416230;28;19999;-67
2023/07/30 01:19:18;;;;;;;;;;;;;;;15.52;100.00;100845.19;10416157;28;19932;-67
2023/07/30 01:24:21;;;;;;;;;;;;;;;15.57;100.00;100853.59;10414810;28;20376;-67
2023/07/30 01:29:43;;;;;;;;;;;;;;;15.33;100.00;100849.25;10416502;28;19925;-67
2023/07/30 01:34:45;;;;;;;;;;;;;;;15.57;100.00;100853.59;10385718;28;19925;-67
2023/07/30 01:39:48;;;;;;;;;;;;;;;15.30;100.00;100846.84;10414460;28;20344;-67
2023/07/30 01:44:50;;;;;;;;;;;;;;;15.30;100.00;100865.31;10415064;28;20020;-67
2023/07/30 01:49:53;;;;;;;;;;;;;;;15.24;100.00;100868.41;10415513;28;20367;-67
2023/07/30 01:54:58;;;;;;;;;;;;;;;15.30;100.00;100873.22;10416051;28;19925;-67
2023/07/30 02:00:01;;;;;;;;;;;;;;;15.28;100.00;100876.91;10446906;28;20300;-67
2023/07/30 02:05:03;;;;;;;;;;;;;;;15.24;100.00;100863.97;10456276;28;19931;-67
2023/07/30 02:10:05;;;;;;;;;;;;;;;15.16;100.00;100868.13;10456300;28;20370;-67
2023/07/30 02:15:08;;;;;;;;;;;;;;;15.28;100.00;100861.94;10456159;28;20257;-67
2023/07/30 02:20:10;;;;;;;;;;;;;;;15.04;100.00;100862.00;10456169;28;19933;-67
2023/07/30 02:25:12;;;;;;;;;;;;;;;15.03;100.00;100857.69;10456170;28;19971;-67
2023/07/30 02:30:15;;;;;;;;;;;;;;;15.13;100.00;100856.03;10456779;28;19925;-67
2023/07/30 02:35:17;;;;;;;;;;;;;;;15.05;100.00;100851.34;10464005;28;19931;-67
2023/07/30 02:40:19;;;;;;;;;;;;;;;14.95;100.00;100853.00;10463891;28;19932;-68
2023/07/30 02:45:21;;;;;;;;;;;;;;;15.15;100.00;100854.13;10463246;28;19924;-67
2023/07/30 02:50:24;;;;;;;;;;;;;;;15.05;100.00;100853.13;10462990;28;19971;-67
2023/07/30 02:55:26;;;;;;;;;;;;;;;15.16;100.00;100841.78;10462718;28;19925;-67
2023/07/30 03:00:28;;;;;;;;;;;;;;;15.00;100.00;100850.00;10462339;28;19924;-67
2023/07/30 03:05:30;;;;;;;;;;;;;;;15.07;100.00;100838.03;10462507;28;19928;-67
2023/07/30 03:10:32;;;;;;;;;;;;;;;15.12;100.00;100851.72;10462112;28;20264;-67
2023/07/30 03:15:35;;;;;;;;;;;;;;;15.08;100.00;100845.00;10461915;28;20284;-67
2023/07/30 03:20:37;;;;;;;;;;;;;;;15.24;100.00;100848.13;10444595;28;19925;-67
2023/07/30 03:25:39;;;;;;;;;;;;;;;15.35;100.00;100849.13;10461591;28;19925;-67
2023/07/30 03:30:41;;;;;;;;;;;;;;;15.37;100.00;100849.84;10461340;28;19931;-67
2023/07/30 03:35:44;;;;;;;;;;;;;;;15.27;100.00;100851.53;10461238;28;19924;-68
2023/07/30 03:40:46;;;;;;;;;;;;;;;15.18;100.00;100868.84;10461150;28;19932;-67
2023/07/30 03:45:48;;;;;;;;;;;;;;;15.35;100.00;100859.69;10460102;28;19925;-67
2023/07/30 03:50:51;;;;;;;;;;;;;;;15.30;100.00;100860.03;10460566;28;19960;-67
2023/07/30 03:55:53;;;;;;;;;;;;;;;15.21;100.00;100860.72;10442822;28;19925;-67
2023/07/30 04:00:56;;;;;;;;;;;;;;;15.33;100.00;100873.00;10459973;28;19925;-67
2023/07/30 04:05:58;;;;;;;;;;;;;;;15.32;100.00;100873.09;10460637;28;19972;-67
2023/07/30 04:11:00;;;;;;;;;;;;;;;15.36;100.00;100878.00;10466903;22;19938;-64
2023/07/30 04:16:03;;;;;;;;;;;;;;;15.71;100.00;100871.00;10459509;28;19925;-64
2023/07/30 04:21:05;;;;;;;;;;;;;;;15.50;100.00;100876.13;10459258;28;19994;-65
2023/07/30 04:26:07;;;;;;;;;;;;;;;15.70;100.00;100893.91;10459341;28;19931;-65
2023/07/30 04:31:09;;;;;;;;;;;;;;;15.66;100.00;100883.69;10458832;28;20372;-65
2023/07/30 04:36:12;;;;;;;;;;;;;;;16.04;100.00;100877.22;10458676;28;20398;-65
2023/07/30 04:41:14;;;;;;;;;;;;;;;15.82;100.00;100888.66;10458657;28;19925;-65
2023/07/30 04:46:16;;;;;;;;;;;;;;;15.74;100.00;100899.78;10458465;28;19931;-65
2023/07/30 04:51:18;;;;;;;;;;;;;;;15.98;100.00;100897.88;10458205;28;19929;-65
2023/07/30 04:56:21;;;;;;;;;;;;;;;16.06;100.00;100899.09;10457268;28;19929;-65
2023/07/30 05:01:26;;;;;;;;;;;;;;;16.19;100.00;100914.81;10457755;28;20011;-65
2023/07/30 05:06:28;;;;;;;;;;;;;;;16.10;100.00;100903.16;10457647;28;19924;-65
2023/07/30 05:11:30;;;;;;;;;;;;;;;16.11;100.00;100900.41;10439635;28;19932;-65
2023/07/30 05:16:33;;;;;;;;;;;;;;;16.26;100.00;100902.81;10439614;28;19931;-65
2023/07/30 05:21:35;;;;;;;;;;;;;;;16.21;100.00;100900.53;10457308;28;19972;-65
2023/07/30 05:26:37;;;;;;;;;;;;;;;16.29;100.00;100903.41;10457031;28;19979;-65
2023/07/30 05:31:40;;;;;;;;;;;;;;;16.23;100.00;100910.97;10456827;28;20443;-70
2023/07/30 05:36:42;;;;;;;;;;;;;;;16.89;100.00;100917.09;10456896;28;20015;-68
2023/07/30 05:41:44;;;;;;;;;;;;;;;16.78;100.00;100919.72;10456869;28;19932;-67
2023/07/30 05:46:47;;;;;;;;;;;;;;;16.65;100.00;100913.78;10456831;28;20007;-65
2023/07/30 05:51:49;;;;;;;;;;;;;;;16.90;100.00;100917.91;10456567;28;19933;-65
2023/07/30 05:56:51;;;;;;;;;;;;;;;16.59;100.00;100922.19;10456457;28;19925;-65
2023/07/30 06:01:55;;;;;;;;;;;;;;;16.65;100.00;100926.97;10438653;28;19925;-66
2023/07/30 06:07:01;;;;;;;;;;;;;;;16.83;100.00;100925.47;10442347;28;20252;-65
2023/07/30 06:12:04;;;;;;;;;;;;;;;16.83;100.00;100928.13;10446691;28;19932;-65
2023/07/30 06:17:06;;;;;;;;;;;;;;;16.83;100.00;100929.94;10446506;28;19931;-65
2023/07/30 06:22:08;;;;;;;;;;;;;;;16.66;100.00;100920.72;10464095;28;20463;-66
2023/07/30 06:27:12;;;;;;;;;;;;;;;16.64;100.00;100922.66;10463939;28;19925;-66
2023/07/30 06:32:14;;;;;;;;;;;;;;;17.06;100.00;100914.84;10463831;28;19925;-65
2023/07/30 06:37:17;;;;;;;;;;;;;;;17.24;100.00;100909.81;10463332;28;19986;-65
2023/07/30 06:42:19;;;;;;;;;;;;;;;17.14;100.00;100917.69;10463137;28;20368;-65
2023/07/30 06:47:21;;;;;;;;;;;;;;;17.30;100.00;100922.56;10462948;28;19947;-65
2023/07/30 06:52:23;;;;;;;;;;;;;;;17.06;100.00;100936.84;10462863;28;19925;-65
2023/07/30 06:57:25;;;;;;;;;;;;;;;17.65;100.00;100931.94;10444939;28;19925;-65
2023/07/30 07:02:28;;;;;;;;;;;;;;;17.70;100.00;100929.75;10444705;28;19935;-65
2023/07/30 07:07:30;;;;;;;;;;;;;;;17.55;100.00;100933.69;10462485;28;20011;-65
2023/07/30 07:12:32;;;;;;;;;;;;;;;17.80;100.00;100930.66;10461946;28;19928;-65
2023/07/30 07:17:35;;;;;;;;;;;;;;;18.17;100.00;100931.94;10460805;28;19924;-65
2023/07/30 07:22:37;;;;;;;;;;;;;;;18.21;100.00;100925.41;10461694;28;19931;-66
2023/07/30 07:27:39;;;;;;;;;;;;;;;18.45;100.00;100938.28;10461348;28;20284;-65
2023/07/30 07:32:42;;;;;;;;;;;;;;;18.45;97.96;100922.38;10461138;28;19986;-65
2023/07/30 07:37:44;;;;;;;;;;;;;;;18.91;95.54;100931.56;10443617;28;19925;-65
2023/07/30 07:42:46;;;;;;;;;;;;;;;19.10;96.36;100932.53;10461060;28;19925;-66
2023/07/30 07:47:49;;;;;;;;;;;;;;;19.27;95.83;100934.47;10460814;28;19924;-66
2023/07/30 07:52:51;;;;;;;;;;;;;;;19.13;92.21;100945.50;10460562;28;19979;-66
2023/07/30 07:57:53;;;;;;;;;;;;;;;18.63;92.47;100942.97;10460284;28;20330;-65
2023/07/30 08:02:55;;;;;;;;;;;;;;;18.96;91.10;100940.91;10460082;28;19932;-66
2023/07/30 08:07:58;;;;;;;;;;;;;;;19.43;93.24;100941.00;10460264;28;19975;-66
2023/07/30 08:13:00;;;;;;;;;;;;;;;19.21;90.01;100953.59;10441813;28;19975;-66
2023/07/30 08:18:02;;;;;;;;;;;;;;;18.98;90.80;100945.13;10459703;28;19929;-65
2023/07/30 08:23:04;;;;;;;;;;;;;;;18.51;91.81;100951.03;10459197;28;19925;-65
2023/07/30 08:28:07;;;;;;;;;;;;;;;18.75;91.35;100957.75;10458935;28;19947;-65
2023/07/30 08:33:09;;;;;;;;;;;;;;;18.75;91.20;100957.75;10441154;28;20334;-65
2023/07/30 08:38:11;;;;;;;;;;;;;;;19.20;90.00;100962.56;10441117;28;20354;-65
2023/07/30 08:43:14;;;;;;;;;;;;;;;19.68;87.99;100952.84;10458393;28;19924;-65
2023/07/30 08:48:16;;;;;;;;;;;;;;;19.53;87.77;100957.75;10440722;28;19932;-65
2023/07/30 08:53:18;;;;;;;;;;;;;;;19.38;86.97;100960.00;10458136;28;19925;-65
2023/07/30 08:58:21;;;;;;;;;;;;;;;19.55;85.76;100961.13;10457925;28;20011;-65
2023/07/30 09:03:25;;;;;;;;;;;;;;;19.28;87.24;100952.09;10439918;28;20368;-65
2023/07/30 09:08:28;;;;;;;;;;;;;;;19.21;85.52;100955.44;10440334;28;19925;-64
2023/07/30 09:13:30;;;;;;;;;;;;;;;19.05;86.74;100972.75;10439717;28;19967;-65
2023/07/30 09:18:37;;;;;;;;;;;;;;;19.05;85.64;100963.97;10457201;28;19929;-65
2023/07/30 09:23:41;;;;;;;;;;;;;;;19.98;84.17;100962.44;10439382;28;19947;-66
2023/07/30 09:28:43;;;;;;;;;;;;;;;20.34;81.61;100956.41;10439462;28;19932;-65
2023/07/30 09:33:45;;;;;;;;;;;;;;;20.60;80.19;100957.38;10456877;28;19974;-65
2023/07/30 09:38:49;;;;;;;;;;;;;;;21.54;77.59;100955.28;10456647;28;20295;-66
2023/07/30 09:43:57;;;;;;;;;;;;;;;21.60;73.41;100970.66;10456040;28;20418;-65
2023/07/30 09:49:00;;;;;;;;;;;;;;;21.39;75.88;100967.47;10456788;28;20011;-65
2023/07/30 09:54:02;;;;;;;;;;;;;;;21.41;71.49;100962.81;10438795;28;19925;-65
2023/07/30 09:59:05;;;;;;;;;;;;;;;21.30;74.27;100964.72;10438792;28;20283;-65
2023/07/30 10:04:08;;;;;;;;;;;;;;;20.27;75.75;100984.56;10456246;28;19925;-62
2023/07/30 10:09:11;;;;;;;;;;;;;;;20.20;76.01;100981.66;10456349;28;19925;-64
2023/07/30 10:14:13;;;;;;;;;;;;;;;19.82;78.32;100986.97;10455903;28;19929;-64
2023/07/30 10:19:16;;;;;;;;;;;;;;;19.77;79.30;100991.88;10438360;28;19928;-64
2023/07/30 10:24:18;;;;;;;;;;;;;;;19.51;80.11;100994.25;10438411;28;19925;-64
2023/07/30 10:29:23;;;;;;;;;;;;;;;19.44;82.62;101015.22;10455791;28;19925;-63
2023/07/30 10:34:25;;;;;;;;;;;;;;;19.12;84.23;101016.31;10455733;28;20020;-64
2023/07/30 10:39:28;;;;;;;;;;;;;;;18.54;84.75;101027.63;10455588;28;19944;-63
2023/07/30 10:44:31;;;;;;;;;;;;;;;18.71;84.96;101023.50;10438121;28;19925;-63
2023/07/30 10:49:37;;;;;;;;;;;;;;;18.85;88.03;101038.22;10437712;28;20307;-64
2023/07/30 10:54:40;;;;;;;;;;;;;;;19.60;82.86;101035.91;10442532;28;19937;-64
2023/07/30 10:59:42;;;;;;;;;;;;;;;19.45;83.35;101037.28;10462538;28;20395;-64
2023/07/30 11:04:44;;;;;;;;;;;;;;;19.69;80.20;101036.88;10462238;28;19932;-64
2023/07/30 11:09:47;;;;;;;;;;;;;;;18.95;82.15;101035.59;10462326;28;19932;-63
2023/07/30 11:14:50;;;;;;;;;;;;;;;20.42;78.34;101031.81;10444054;28;19970;-64
2023/07/30 11:19:52;;;;;;;;;;;;;;;21.94;74.97;101027.63;10444329;28;19925;-64
2023/07/30 11:24:54;;;;;;;;;;;;;;;23.84;70.20;101022.69;10461554;28;19931;-65
2023/07/30 11:29:57;;;;;;;;;;;;;;;24.49;64.99;101026.16;10461293;28;20283;-64
2023/07/30 11:35:00;;;;;;;;;;;;;;;24.60;63.38;101004.41;10461130;28;19928;-65
2023/07/30 11:40:02;;;;;;;;;;;;;;;24.18;65.42;101010.91;10460826;28;19929;-65
2023/07/30 11:45:23;;;;;;;;;;;;;;;25.24;62.31;101008.69;10443093;28;19932;-65
2023/07/30 11:50:25;;;;;;;;;;;;;;;24.18;65.85;101026.94;10443014;28;20366;-65
2023/07/30 11:55:36;;;;;;;;;;;;;;;23.71;67.67;101027.69;10460597;28;19931;-64
2023/07/30 12:00:39;;;;;;;;;;;;;;;22.42;69.01;101042.28;10442310;28;20273;-63
2023/07/30 12:05:41;;;;;;;;;;;;;;;22.79;66.90;101036.56;10425268;28;19925;-66
2023/07/30 12:10:43;;;;;;;;;;;;;;;23.64;61.78;101034.72;10459748;28;19935;-67
2023/07/30 12:15:55;;;;;;;;;;;;;;;22.09;65.15;101023.41;10443130;28;19963;-68
2023/07/30 12:20:57;;;;;;;;;;;;;;;24.21;62.63;101044.47;10441950;28;19968;-67
2023/07/30 12:26:00;;;;;;;;;;;;;;;24.06;58.47;101034.50;10459091;28;19931;-67
2023/07/30 12:31:02;;;;;;;;;;;;;;;25.66;59.25;101033.31;10424073;28;20327;-67
2023/07/30 12:36:05;;;;;;;;;;;;;;;25.74;57.73;101028.72;10418204;28;20270;-67
2023/07/30 12:41:07;;;;;;;;;;;;;;;24.55;59.21;101027.34;10417277;28;20300;-68
2023/07/30 12:46:09;;;;;;;;;;;;;;;22.69;62.52;101035.03;10417268;28;19925;-68
2023/07/30 12:51:11;;;;;;;;;;;;;;;24.49;57.38;101042.22;10416883;28;19971;-68
2023/07/30 12:56:14;;;;;;;;;;;;;;;23.16;55.11;101029.19;10416943;28;19935;-68
2023/07/30 13:01:17;;;;;;;;;;;;;;;23.99;54.70;101048.72;10416544;28;19925;-64
2023/07/30 13:06:19;;;;;;;;;;;;;;;21.87;57.90;101038.94;10416364;28;20343;-69
2023/07/30 13:11:22;;;;;;;;;;;;;;;24.93;55.96;101046.22;10416261;28;20398;-68
2023/07/30 13:16:24;;;;;;;;;;;;;;;23.03;57.13;101047.47;10415239;28;19929;-69
2023/07/30 13:21:26;;;;;;;;;;;;;;;21.92;59.63;101048.28;10398362;28;20388;-69
2023/07/30 13:26:29;;;;;;;;;;;;;;;24.86;55.86;101040.72;10415942;28;20015;-69
2023/07/30 13:31:31;;;;;;;;;;;;;;;24.29;58.64;101044.47;10415898;28;19932;-67
2023/07/30 13:36:33;;;;;;;;;;;;;;;25.38;56.63;101031.19;10398183;28;20326;-68
2023/07/30 13:41:35;;;;;;;;;;;;;;;25.46;54.05;101038.34;10409268;28;19926;-68
2023/07/30 13:46:41;;;;;;;;;;;;;;;22.94;55.69;101052.78;10458217;28;19931;-67
2023/07/30 13:51:44;;;;;;;;;;;;;;;23.97;53.28;101048.88;10440091;28;19963;-64
2023/07/30 13:56:46;;;;;;;;;;;;;;;23.72;55.53;101061.41;10454679;28;19944;-64
2023/07/30 14:01:48;;;;;;;;;;;;;;;23.34;54.58;101042.38;10434405;28;20356;-64
2023/07/30 14:06:50;;;;;;;;;;;;;;;23.77;54.04;101069.78;10452521;28;19925;-64
2023/07/30 14:11:53;;;;;;;;;;;;;;;24.37;53.57;101063.16;10453945;28;19925;-64
2023/07/30 14:16:55;;;;;;;;;;;;;;;22.84;55.35;101068.13;10456022;28;19925;-64
2023/07/30 14:21:57;;;;;;;;;;;;;;;22.16;56.06;101067.13;10456017;28;19931;-63
2023/07/30 14:27:00;;;;;;;;;;;;;;;22.46;58.29;101072.97;10457717;28;19933;-64
2023/07/30 14:32:02;;;;;;;;;;;;;;;22.44;58.29;101073.13;10463611;28;20288;-64
2023/07/30 14:37:04;;;;;;;;;;;;;;;22.29;55.92;101065.88;10463588;28;19935;-64
2023/07/30 14:42:07;;;;;;;;;;;;;;;23.12;57.89;101070.56;10463251;28;20284;-64
2023/07/30 14:47:10;;;;;;;;;;;;;;;23.96;55.72;101071.31;10445569;28;19925;-64
2023/07/30 14:52:12;;;;;;;;;;;;;;;22.98;57.92;101062.16;10462959;28;20288;-64
2023/07/30 14:57:14;;;;;;;;;;;;;;;24.18;56.65;101064.41;10462891;28;19928;-65
2023/07/30 15:02:17;;;;;;;;;;;;;;;24.96;53.86;101060.09;10462433;28;19924;-64
2023/07/30 15:07:19;;;;;;;;;;;;;;;22.76;56.61;101062.75;10462444;28;19924;-64
2023/07/30 15:12:21;;;;;;;;;;;;;;;23.23;57.01;101050.72;10461930;28;19925;-64
2023/07/30 15:17:23;;;;;;;;;;;;;;;22.96;57.72;101049.97;10462192;28;20011;-64
2023/07/30 15:22:26;;;;;;;;;;;;;;;22.50;59.24;101047.66;10461678;28;19925;-63
2023/07/30 15:27:28;;;;;;;;;;;;;;;21.33;64.89;101065.63;10461649;28;19924;-64
2023/07/30 15:32:32;;;;;;;;;;;;;;;21.21;70.74;101068.66;10461639;28;19932;-64
2023/07/30 15:37:35;;;;;;;;;;;;;;;21.47;72.56;101071.44;10443110;28;20396;-64
2023/07/30 15:42:38;;;;;;;;;;;;;;;21.21;73.86;101064.16;10461046;28;19931;-64
2023/07/30 15:47:40;;;;;;;;;;;;;;;21.49;71.86;101062.28;10460850;28;19925;-64
2023/07/30 15:52:42;;;;;;;;;;;;;;;20.60;76.94;101074.41;10460623;28;20474;-64
2023/07/30 15:57:44;;;;;;;;;;;;;;;21.00;73.91;101064.44;10460521;28;19976;-64
2023/07/30 16:02:47;;;;;;;;;;;;;;;21.66;72.73;101046.44;10460058;28;19931;-64
2023/07/30 16:07:49;;;;;;;;;;;;;;;21.92;69.62;101050.94;10460153;28;20042;-64
2023/07/30 16:12:53;;;;;;;;;;;;;;;21.66;70.99;101057.09;10459313;28;19924;-64
2023/07/30 16:17:55;;;;;;;;;;;;;;;21.72;70.52;101059.16;10459593;28;20271;-64
2023/07/30 16:22:57;;;;;;;;;;;;;;;21.38;70.19;101054.47;10459248;28;19925;-64
2023/07/30 16:28:00;;;;;;;;;;;;;;;21.06;72.33;101050.50;10472778;22;20405;-62
2023/07/30 16:33:03;;;;;;;;;;;;;;;21.35;69.70;101041.50;10459124;28;19925;-64
2023/07/30 16:38:05;;;;;;;;;;;;;;;21.04;72.28;101017.88;10458854;28;19967;-64
2023/07/30 16:43:09;;;;;;;;;;;;;;;21.15;69.97;101020.34;10458060;28;20285;-64
2023/07/30 16:48:12;;;;;;;;;;;;;;;21.37;69.42;101030.66;10458550;28;19925;-64
2023/07/30 16:53:14;;;;;;;;;;;;;;;21.06;71.30;101055.00;10458487;28;19929;-64
2023/07/30 16:58:16;;;;;;;;;;;;;;;20.50;70.47;101047.03;10458309;28;19931;-64
2023/07/30 17:03:18;;;;;;;;;;;;;;;20.53;70.84;101045.91;10457935;28;19931;-64
2023/07/30 17:08:21;;;;;;;;;;;;;;;20.49;68.96;101041.84;10457930;28;19925;-64
2023/07/30 17:13:23;;;;;;;;;;;;;;;20.14;69.21;101057.50;10457745;28;20394;-65
2023/07/30 17:18:25;;;;;;;;;;;;;;;20.30;71.25;101061.38;10457725;28;19931;-65
2023/07/30 17:23:27;;;;;;;;;;;;;;;20.01;71.41;101068.44;10457212;28;20007;-65
2023/07/30 17:28:30;;;;;;;;;;;;;;;20.21;72.29;101068.41;10456885;28;20385;-65
2023/07/30 17:33:32;;;;;;;;;;;;;;;19.86;73.13;101070.72;10457144;28;19924;-65
2023/07/30 17:38:35;;;;;;;;;;;;;;;19.75;75.70;101070.03;10456927;28;19924;-65
2023/07/30 17:43:38;;;;;;;;;;;;;;;19.58;77.89;101060.91;10456967;28;19931;-65
2023/07/30 17:48:40;;;;;;;;;;;;;;;19.29;80.74;101075.03;10456742;28;19925;-64
2023/07/30 17:53:43;;;;;;;;;;;;;;;19.03;83.21;101082.66;10456545;28;20290;-65
2023/07/30 17:58:45;;;;;;;;;;;;;;;18.92;85.76;101084.44;10456463;28;20012;-65
2023/07/30 18:03:47;;;;;;;;;;;;;;;18.74;87.10;101084.25;10461565;28;19980;-65
2023/07/30 18:08:50;;;;;;;;;;;;;;;18.74;88.64;101097.50;10464910;28;19925;-65
2023/07/30 18:13:52;;;;;;;;;;;;;;;18.63;89.62;101102.88;10464543;28;19968;-65
2023/07/30 18:18:54;;;;;;;;;;;;;;;18.38;92.02;101094.38;10464297;28;19999;-65
2023/07/30 18:23:56;;;;;;;;;;;;;;;18.27;96.25;101096.28;10464304;28;19924;-65
2023/07/30 18:28:59;;;;;;;;;;;;;;;18.17;97.78;101098.88;10463676;28;19925;-65
2023/07/30 18:34:01;;;;;;;;;;;;;;;18.36;97.48;101099.00;10463785;28;19929;-64
2023/07/30 18:39:03;;;;;;;;;;;;;;;17.88;100.00;101102.16;10463569;28;19924;-64
2023/07/30 18:44:05;;;;;;;;;;;;;;;17.93;100.00;101101.78;10463189;28;19997;-64
2023/07/30 18:49:08;;;;;;;;;;;;;;;17.86;100.00;101095.31;10463212;28;19931;-64
2023/07/30 18:54:10;;;;;;;;;;;;;;;17.97;100.00;101101.41;10462861;28;20386;-64
2023/07/30 18:59:12;;;;;;;;;;;;;;;17.88;100.00;101096.88;10462935;28;19925;-64
2023/07/30 19:04:15;;;;;;;;;;;;;;;17.46;100.00;101096.78;10462514;28;19931;-64
2023/07/30 19:09:17;;;;;;;;;;;;;;;17.75;100.00;101088.22;10462619;28;19931;-64
2023/07/30 19:14:20;;;;;;;;;;;;;;;17.67;100.00;101098.63;10460979;28;19924;-64
2023/07/30 19:19:22;;;;;;;;;;;;;;;17.34;100.00;101095.97;10444193;28;20375;-64
2023/07/30 19:24:25;;;;;;;;;;;;;;;17.32;100.00;101086.50;10461780;28;19975;-64
2023/07/30 19:29:29;;;;;;;;;;;;;;;17.55;100.00;101092.53;10461219;28;19931;-64
2023/07/30 19:34:31;;;;;;;;;;;;;;;17.26;100.00;101103.69;10461227;28;19932;-64
2023/07/30 19:39:33;;;;;;;;;;;;;;;17.38;100.00;101102.72;10461176;28;19939;-64
2023/07/30 19:44:35;;;;;;;;;;;;;;;17.44;100.00;101098.72;10460939;28;19924;-63
2023/07/30 19:49:38;;;;;;;;;;;;;;;17.23;100.00;101111.88;10460840;28;20003;-63
2023/07/30 19:54:40;;;;;;;;;;;;;;;17.37;100.00;101093.06;10460624;28;19925;-63
2023/07/30 19:59:42;;;;;;;;;;;;;;;17.30;100.00;101075.16;10460586;28;19925;-63
2023/07/30 20:04:44;;;;;;;;;;;;;;;17.03;100.00;101085.22;10460069;28;19935;-63
2023/07/30 20:09:47;;;;;;;;;;;;;;;17.13;100.00;101074.75;10442546;28;19924;-63
2023/07/30 20:14:49;;;;;;;;;;;;;;;17.30;100.00;101059.28;10459858;28;19925;-63
2023/07/30 20:19:51;;;;;;;;;;;;;;;17.03;100.00;101064.06;10459748;28;19932;-63
2023/07/30 20:24:54;;;;;;;;;;;;;;;17.09;100.00;101052.13;10458935;28;19925;-63
2023/07/30 20:29:56;;;;;;;;;;;;;;;17.37;100.00;101050.72;10458966;28;19931;-63
2023/07/30 20:34:58;;;;;;;;;;;;;;;17.22;100.00;101063.41;10458929;28;19932;-63
2023/07/30 20:40:00;;;;;;;;;;;;;;;17.24;100.00;101055.34;10458795;28;20287;-63
2023/07/30 20:45:02;;;;;;;;;;;;;;;17.18;100.00;101054.06;10458388;28;20008;-63
2023/07/30 20:50:05;;;;;;;;;;;;;;;17.46;100.00;101044.66;10458529;28;19936;-63
2023/07/30 20:55:08;;;;;;;;;;;;;;;17.07;100.00;101044.31;10458207;28;19924;-63
2023/07/30 21:00:10;;;;;;;;;;;;;;;17.17;100.00;101044.41;10457968;28;19931;-62
2023/07/30 21:05:12;;;;;;;;;;;;;;;17.07;100.00;101036.38;10457855;28;19931;-63
2023/07/30 21:10:15;;;;;;;;;;;;;;;16.60;100.00;101040.19;10457851;28;20019;-63
2023/07/30 21:15:17;;;;;;;;;;;;;;;16.73;100.00;101032.97;10457481;28;20008;-63
2023/07/30 21:20:19;;;;;;;;;;;;;;;16.82;100.00;101040.13;10457592;28;19924;-63
2023/07/30 21:25:21;;;;;;;;;;;;;;;16.89;100.00;101038.75;10457043;28;19925;-63
2023/07/30 21:30:24;;;;;;;;;;;;;;;16.61;100.00;101042.69;10456971;28;19932;-63
2023/07/30 21:35:26;;;;;;;;;;;;;;;16.44;100.00;101045.81;10438955;28;19931;-63
2023/07/30 21:40:28;;;;;;;;;;;;;;;16.21;100.00;101047.63;10456519;28;20295;-62
2023/07/30 21:45:31;;;;;;;;;;;;;;;16.39;100.00;101043.56;10456887;28;19924;-62
2023/07/30 21:50:33;;;;;;;;;;;;;;;16.28;100.00;101039.09;10456559;28;20019;-63
2023/07/30 21:55:35;;;;;;;;;;;;;;;16.01;100.00;101041.22;10456753;28;19935;-63
2023/07/30 22:00:37;;;;;;;;;;;;;;;16.06;100.00;101031.97;10456472;28;20315;-63
2023/07/30 22:05:40;;;;;;;;;;;;;;;15.87;100.00;101029.06;10456221;28;19957;-62
2023/07/30 22:10:42;;;;;;;;;;;;;;;15.98;100.00;101022.00;10456463;28;19931;-62
2023/07/30 22:15:45;;;;;;;;;;;;;;;16.18;100.00;101002.94;10456148;28;20019;-63
2023/07/30 22:20:47;;;;;;;;;;;;;;;16.10;100.00;101004.34;10438597;28;19925;-63
2023/07/30 22:25:52;;;;;;;;;;;;;;;15.85;100.00;101001.94;10456028;28;19925;-63
2023/07/30 22:30:54;;;;;;;;;;;;;;;15.71;100.00;101001.16;10455721;28;19924;-63
2023/07/30 22:35:57;;;;;;;;;;;;;;;15.65;100.00;101006.06;10455923;28;19925;-63
2023/07/30 22:40:59;;;;;;;;;;;;;;;15.96;100.00;100994.03;10455795;28;19925;-63
2023/07/30 22:46:01;;;;;;;;;;;;;;;15.60;100.00;100991.41;10455689;28;19924;-63
2023/07/30 22:51:04;;;;;;;;;;;;;;;15.80;100.00;100994.34;10462218;28;19928;-63
2023/07/30 22:56:06;;;;;;;;;;;;;;;15.74;100.00;100987.72;10462888;28;20394;-63
2023/07/30 23:01:08;;;;;;;;;;;;;;;15.76;100.00;100988.47;10462603;28;20390;-63
2023/07/30 23:06:10;;;;;;;;;;;;;;;15.54;100.00;100991.03;10462484;28;19928;-63
2023/07/30 23:11:13;;;;;;;;;;;;;;;15.58;100.00;100985.44;10462529;28;19924;-63
2023/07/30 23:16:15;;;;;;;;;;;;;;;15.83;100.00;100972.19;10462116;28;19936;-63
2023/07/30 23:21:17;;;;;;;;;;;;;;;15.86;100.00;100967.50;10461867;28;19924;-63
2023/07/30 23:26:20;;;;;;;;;;;;;;;15.78;100.00;100967.25;10461454;28;20275;-63
2023/07/30 23:31:22;;;;;;;;;;;;;;;15.86;100.00;100959.56;10460475;28;19924;-63
2023/07/30 23:36:24;;;;;;;;;;;;;;;16.03;100.00;100957.44;10461579;28;19971;-63
2023/07/30 23:41:26;;;;;;;;;;;;;;;16.12;100.00;100957.56;10443420;28;19924;-63
2023/07/30 23:46:28;;;;;;;;;;;;;;;15.98;100.00;100955.16;10443104;28;19931;-63
2023/07/30 23:51:31;;;;;;;;;;;;;;;16.08;100.00;100952.63;10460656;28;20291;-63
2023/07/30 23:56:33;;;;;;;;;;;;;;;16.05;100.00;100944.94;10443103;28;19924;-64
